createdAt,value
2022-11-25T08:24:22.180Z,7.58
2022-11-25T08:24:55.149Z,7.56
2022-11-25T08:25:55.186Z,7.63
2022-11-25T08:26:55.235Z,7.72
2022-11-25T08:27:55.278Z,7.67
2022-11-25T08:28:55.358Z,7.72
2022-11-25T08:29:55.384Z,7.71
2022-11-25T08:30:55.431Z,7.77
2022-11-25T08:31:55.463Z,7.77
2022-11-25T08:32:55.508Z,7.72
2022-11-25T08:35:20.347Z,7.71
2022-11-25T08:36:20.384Z,7.81
2022-11-25T08:37:20.407Z,7.75
2022-11-25T08:38:20.459Z,7.75
2022-11-25T08:40:20.553Z,7.84
2022-11-25T08:41:20.620Z,7.78
2022-11-25T08:42:20.652Z,7.79
2022-11-25T08:43:25.003Z,7.84
2022-11-25T08:44:20.719Z,7.81
2022-11-25T08:45:20.777Z,7.94
2022-11-25T08:46:20.982Z,7.87
2022-11-25T08:47:20.883Z,7.89
2022-11-25T08:48:20.910Z,7.87
2022-11-25T08:49:20.952Z,7.97
2022-11-25T08:54:31.565Z,8.29
2022-11-25T08:55:12.561Z,8.28
2022-11-25T08:56:12.607Z,8.33
2022-11-25T08:57:12.665Z,8.45
2022-11-25T08:58:13.487Z,8.51
2022-11-25T09:30:02.431Z,9.58
2022-11-25T09:30:35.424Z,9.45
2022-11-25T09:31:35.486Z,9.48
2022-11-25T09:32:35.510Z,9.48
2022-11-25T09:33:35.542Z,9.45
2022-11-25T10:58:02.255Z,9.86
2022-11-25T10:59:02.252Z,9.79
2022-11-25T11:00:02.298Z,9.76
2022-11-25T11:01:02.355Z,9.86
2022-11-25T11:02:02.439Z,9.79
2022-11-25T11:03:02.539Z,9.83
2022-11-25T11:04:02.520Z,9.75
2022-11-25T11:05:02.541Z,9.82
2022-11-25T11:06:02.589Z,9.85
2022-11-25T11:07:02.654Z,9.82
2022-11-25T11:08:31.565Z,9.81
2022-11-25T11:09:02.758Z,9.82
2022-11-25T11:10:02.751Z,9.83
2022-11-25T11:11:02.799Z,9.88
2022-11-25T11:12:02.851Z,9.81
2022-11-25T11:13:02.892Z,9.81
2022-11-25T11:14:02.958Z,9.89
2022-11-25T11:15:02.982Z,9.86
2022-11-25T11:16:03.074Z,9.83
2022-11-25T11:17:03.082Z,9.89
2022-11-25T11:18:03.149Z,9.86
2022-11-25T11:19:03.195Z,9.81
2022-11-25T11:20:03.219Z,9.76
2022-11-25T11:21:03.271Z,9.91
2022-11-25T11:22:03.306Z,9.86
2022-11-25T11:23:08.631Z,9.94
2022-11-25T11:27:59.979Z,9.96
2022-11-25T11:28:27.785Z,9.94
2022-11-25T11:29:00.785Z,10.01
2022-11-25T11:30:00.840Z,10.04
2022-11-25T11:31:01.005Z,10.03
2022-11-25T11:32:00.951Z,9.96
2022-11-25T11:33:00.995Z,10.01
2022-11-25T11:34:01.048Z,10.15
2022-11-25T11:35:01.069Z,10.17
2022-11-25T11:36:01.115Z,10.15
2022-11-25T11:37:01.881Z,10.17
2022-11-25T11:38:01.233Z,10.14
2022-11-25T11:39:01.313Z,10.15
2022-11-25T11:40:01.305Z,10.17
2022-11-25T11:41:01.361Z,10.12
2022-11-25T11:42:01.393Z,10.26
2022-11-25T11:43:01.469Z,10.26
2022-11-25T11:44:01.519Z,10.30
2022-11-25T11:45:01.539Z,10.32
2022-11-25T11:46:02.373Z,10.32
2022-11-25T11:47:01.717Z,10.40
2022-11-25T11:48:01.686Z,10.33
2022-11-25T11:49:01.735Z,10.40
2022-11-25T11:50:01.776Z,10.47
2022-11-25T11:51:02.369Z,10.42
2022-11-25T11:52:01.896Z,10.32
2022-11-25T11:53:01.918Z,10.14
2022-11-25T11:54:02.877Z,10.14
2022-11-25T11:55:02.019Z,10.15
2022-11-25T11:56:32.882Z,10.22
2022-11-25T11:57:02.151Z,10.32
2022-11-25T11:58:02.156Z,10.58
2022-11-25T11:59:02.195Z,10.65
2022-11-25T12:00:02.277Z,10.66
2022-11-25T12:01:02.366Z,10.76
2022-11-25T12:02:02.385Z,10.63
2022-11-25T12:03:02.471Z,10.66
2022-11-25T12:04:02.438Z,10.63
2022-11-25T12:05:02.493Z,10.62
2022-11-25T12:06:02.595Z,10.74
2022-11-25T12:07:03.389Z,10.77
2022-11-25T12:08:02.713Z,10.80
2022-11-25T12:09:02.699Z,10.80
2022-11-25T12:10:03.618Z,10.77
2022-11-25T12:11:02.809Z,10.71
2022-11-25T12:12:02.814Z,10.83
2022-11-25T12:13:02.860Z,10.76
2022-11-25T12:14:02.916Z,10.80
2022-11-25T12:15:03.892Z,10.78
2022-11-25T12:16:03.086Z,10.88
2022-11-25T12:17:03.051Z,10.83
2022-11-25T12:56:14.364Z,10.65
2022-11-25T12:57:14.378Z,10.68
2022-11-25T12:58:14.439Z,10.68
2022-11-25T12:59:14.501Z,10.73
2022-11-25T13:01:14.624Z,10.73
2022-11-25T13:02:14.644Z,10.77
2022-11-25T13:03:14.650Z,10.74
2022-11-25T13:04:14.731Z,10.70
2022-11-25T13:05:39.704Z,10.78
2022-11-25T13:06:14.803Z,10.91
2022-11-25T13:07:14.892Z,10.80
2022-11-25T13:08:14.887Z,10.77
2022-11-25T13:09:14.947Z,10.91
2022-11-25T13:10:15.003Z,10.84
2022-11-25T13:11:15.265Z,10.81
2022-11-25T13:12:15.321Z,10.84
2022-11-25T13:13:18.269Z,10.77
2022-11-25T13:14:16.100Z,10.83
2022-11-25T13:15:15.532Z,10.76
2022-11-25T13:16:15.741Z,10.68
2022-11-25T13:17:15.703Z,10.62
2022-11-25T13:18:15.424Z,10.62
2022-11-25T13:19:15.396Z,10.65
2022-11-25T13:20:16.291Z,10.76
2022-11-25T13:21:15.509Z,10.63
2022-11-25T13:22:15.536Z,10.59
2022-11-25T13:23:15.605Z,10.58
2022-11-25T13:24:15.637Z,10.58
2022-11-25T13:25:15.696Z,10.53
2022-11-25T13:26:15.724Z,10.52
2022-11-25T13:27:15.843Z,10.39
2022-11-25T13:28:15.855Z,10.32
2022-11-25T13:29:15.902Z,10.24
2022-11-25T13:30:15.940Z,10.22
2022-11-25T13:31:16.102Z,10.25
2022-11-25T13:32:16.032Z,10.18
2022-11-25T13:33:16.051Z,10.17
2022-11-25T13:34:16.128Z,10.12
2022-11-25T13:35:16.151Z,10.01
2022-11-25T13:36:16.202Z,10.15
2022-11-25T13:37:16.350Z,10.04
2022-11-25T13:38:16.317Z,10.07
2022-11-25T13:39:16.371Z,10.01
2022-11-25T13:40:16.403Z,10.01
2022-11-25T13:41:16.477Z,10.06
2022-11-25T13:42:16.473Z,10.00
2022-11-25T13:43:18.999Z,10.07
2022-11-25T13:44:16.577Z,9.99
2022-11-25T13:45:17.275Z,9.99
2022-11-25T13:46:16.805Z,9.96
2022-11-25T13:47:16.722Z,9.91
2022-11-25T13:48:16.748Z,9.88
2022-11-25T13:49:16.802Z,9.88
2022-11-25T13:50:21.762Z,9.78
2022-11-25T13:51:16.944Z,9.86
2022-11-25T13:52:16.970Z,9.91
2022-11-25T13:53:16.993Z,9.88
2022-11-25T13:54:17.055Z,9.91
2022-11-25T13:55:17.080Z,9.85
2022-11-25T13:56:17.163Z,9.85
2022-11-25T13:57:17.207Z,9.85
2022-11-25T13:58:17.291Z,9.88
2022-11-25T13:59:17.263Z,9.86
2022-11-25T14:00:17.319Z,9.78
2022-11-25T14:01:17.354Z,9.82
2022-11-25T14:02:17.499Z,9.79
2022-11-25T14:03:17.507Z,9.76
2022-11-25T14:04:17.531Z,9.76
2022-11-25T14:05:17.648Z,9.76
2022-11-25T14:06:17.601Z,9.78
2022-11-25T14:07:20.031Z,9.70
2022-11-25T14:08:17.746Z,9.73
2022-11-25T14:09:17.724Z,9.67
2022-11-25T14:10:17.806Z,9.57
2022-11-25T14:11:17.848Z,9.63
2022-11-25T14:12:17.877Z,9.70
2022-11-25T14:13:17.913Z,9.68
2022-11-25T14:14:17.992Z,9.71
2022-11-25T14:15:18.003Z,9.64
2022-11-25T14:16:18.095Z,9.58
2022-11-25T14:17:18.103Z,9.68
2022-11-25T14:18:18.142Z,9.67
2022-11-25T14:20:18.269Z,9.67
2022-11-25T14:21:18.283Z,9.70
2022-11-25T14:22:18.335Z,9.71
2022-11-25T14:23:22.173Z,9.76
2022-11-25T14:24:18.426Z,9.63
2022-11-25T14:25:18.491Z,9.73
2022-11-25T14:26:42.220Z,9.73
2022-11-25T14:27:18.558Z,9.73
2022-11-25T14:28:18.639Z,9.68
2022-11-25T14:29:18.655Z,9.53
2022-11-25T14:30:18.704Z,9.49
2022-11-25T14:31:18.775Z,9.45
2022-11-25T14:32:18.789Z,9.45
2022-11-25T14:33:18.867Z,9.43
2022-11-25T14:34:18.880Z,9.48
2022-11-25T14:35:18.932Z,9.46
2022-11-25T14:36:18.978Z,9.48
2022-11-25T14:37:19.043Z,9.49
2022-11-25T14:38:19.091Z,9.61
2022-11-25T14:39:19.114Z,9.56
2022-11-25T14:40:19.200Z,9.58
2022-11-25T14:41:19.214Z,9.57
2022-11-25T14:42:19.262Z,9.52
2022-11-25T14:43:19.302Z,9.63
2022-11-25T14:44:19.353Z,9.53
2022-11-25T14:45:19.421Z,9.48
2022-11-25T14:46:19.485Z,9.48
2022-11-25T14:47:19.518Z,9.49
2022-11-25T14:48:19.567Z,9.45
2022-11-25T14:49:44.950Z,9.48
2022-11-25T14:50:34.255Z,9.49
2022-11-25T14:51:19.676Z,9.42
2022-11-25T14:52:19.727Z,9.46
2022-11-25T14:53:19.795Z,9.45
2022-11-25T14:54:19.816Z,9.43
2022-11-25T14:55:19.864Z,9.40
2022-11-25T14:56:19.925Z,9.39
2022-11-25T14:57:20.014Z,9.34
2022-11-25T14:58:19.991Z,9.31
2022-11-25T14:59:20.047Z,9.34
2022-11-25T15:00:20.113Z,9.27
2022-11-25T15:01:20.135Z,9.30
2022-11-25T15:02:20.208Z,9.23
2022-11-25T15:03:20.235Z,9.27
2022-11-25T15:04:20.389Z,9.21
2022-11-25T15:05:20.316Z,9.23
2022-11-25T15:06:20.399Z,9.25
2022-11-25T15:07:20.531Z,9.23
2022-11-25T15:08:20.463Z,9.27
2022-11-25T15:09:20.536Z,9.18
2022-11-25T15:10:20.546Z,9.21
2022-11-25T15:11:20.597Z,9.21
2022-11-25T15:12:20.646Z,9.21
2022-11-25T15:13:20.695Z,9.16
2022-11-25T15:14:20.762Z,9.27
2022-11-25T15:15:20.783Z,9.23
2022-11-25T15:16:20.872Z,9.12
2022-11-25T15:17:20.869Z,9.23
2022-11-25T15:18:20.926Z,9.15
2022-11-25T15:19:20.989Z,9.16
2022-11-25T15:20:21.005Z,9.18
2022-11-25T15:21:21.062Z,9.21
2022-11-25T15:22:23.998Z,9.10
2022-11-25T15:23:21.153Z,9.12
2022-11-25T15:24:21.240Z,9.24
2022-11-25T15:25:21.249Z,9.23
2022-11-25T15:26:21.284Z,9.23
2022-11-25T15:27:21.347Z,9.21
2022-11-25T15:28:21.388Z,9.15
2022-11-25T15:29:21.483Z,9.09
2022-11-25T15:30:21.484Z,9.16
2022-11-25T15:31:21.568Z,9.06
2022-11-25T15:32:21.562Z,9.10
2022-11-25T15:33:21.623Z,9.15
2022-11-25T15:34:21.684Z,9.05
2022-11-25T15:35:21.725Z,9.16
2022-11-25T15:36:21.750Z,9.13
2022-11-25T15:37:21.799Z,9.10
2022-11-25T15:38:21.844Z,9.04
2022-11-25T15:39:21.895Z,9.04
2022-11-25T15:40:21.956Z,9.04
2022-11-25T15:41:21.981Z,9.01
2022-11-25T15:42:22.019Z,9.02
2022-11-25T15:43:22.065Z,9.05
2022-11-25T15:44:22.106Z,9.01
2022-11-25T18:29:57.511Z,8.26
2022-11-25T18:30:30.528Z,8.33
2022-11-25T18:31:30.629Z,8.29
2022-11-25T18:32:30.575Z,8.35
2022-11-25T18:33:30.609Z,8.29
2022-11-25T18:34:30.646Z,8.30
2022-11-25T18:35:35.765Z,8.30
2022-11-25T18:36:30.778Z,8.30
2022-11-25T18:37:31.826Z,8.35
2022-11-25T18:47:24.307Z,8.35
2022-11-25T18:48:24.372Z,8.22
2022-11-25T18:49:24.362Z,8.26
2022-11-25T18:50:24.408Z,8.20
2022-11-25T18:51:24.459Z,8.26
2022-11-25T18:52:24.515Z,8.21
2022-11-25T18:53:24.567Z,8.28
2022-11-25T18:54:24.581Z,8.22
2022-11-25T18:55:24.630Z,8.22
2022-11-25T18:56:24.675Z,8.21
2022-11-25T18:57:24.712Z,8.28
2022-11-25T18:58:24.791Z,8.25
2022-11-25T18:59:24.795Z,8.26
2022-11-25T19:00:32.184Z,8.26
2022-11-25T19:01:24.929Z,8.26
2022-11-25T19:02:24.966Z,8.29
2022-11-25T19:03:24.995Z,8.20
2022-11-25T19:04:25.019Z,8.22
2022-11-25T19:05:25.097Z,8.26
2022-11-25T19:06:25.111Z,8.20
2022-11-25T19:07:25.189Z,8.33
2022-11-25T19:08:25.213Z,8.33
2022-11-25T19:09:25.280Z,8.32
2022-11-25T19:10:25.321Z,8.30
2022-11-25T19:11:25.354Z,8.22
2022-11-25T19:12:25.384Z,8.22
2022-11-25T19:13:25.425Z,8.28
2022-11-25T19:14:25.519Z,8.26
2022-11-25T19:15:25.522Z,8.29
2022-11-25T19:16:25.610Z,8.20
2022-11-25T19:17:25.695Z,8.25
2022-11-25T19:18:25.653Z,8.30
2022-11-25T19:19:25.741Z,8.32
2022-11-25T19:20:25.731Z,8.32
2022-11-25T19:21:25.826Z,8.33
2022-11-25T19:22:25.833Z,8.32
2022-11-25T19:23:25.883Z,8.33
2022-11-25T19:24:25.955Z,8.32
2022-11-25T19:25:25.971Z,8.25
2022-11-25T19:26:26.074Z,8.30
2022-11-25T19:27:26.127Z,8.30
2022-11-25T19:28:26.098Z,8.30
2022-11-25T19:29:26.143Z,8.30
2022-11-25T19:30:26.197Z,8.21
2022-11-25T19:31:26.289Z,8.26
2022-11-25T19:32:26.285Z,8.22
2022-11-25T19:33:26.336Z,8.21
2022-11-25T19:34:26.381Z,8.20
2022-11-25T19:35:26.425Z,8.21
2022-11-25T19:36:26.493Z,8.21
2022-11-25T19:37:26.513Z,8.29
2022-11-25T19:38:26.562Z,8.28
2022-11-25T19:39:26.598Z,8.33
2022-11-25T19:40:26.657Z,8.25
2022-11-25T19:41:26.710Z,8.21
2022-11-25T19:42:26.742Z,8.22
2022-11-25T19:43:26.783Z,8.22
2022-11-25T19:44:26.827Z,8.25
2022-11-25T19:45:27.722Z,8.29
2022-11-25T19:46:30.104Z,8.22
2022-11-25T19:47:27.005Z,8.25
2022-11-25T19:48:27.073Z,8.20
2022-11-25T19:49:27.060Z,8.25
2022-11-25T19:50:27.136Z,8.20
2022-11-25T19:51:27.142Z,8.17
2022-11-25T19:52:27.199Z,8.22
2022-11-25T19:53:33.041Z,8.22
2022-11-25T19:54:27.275Z,8.26
2022-11-25T19:55:27.352Z,8.26
2022-11-25T19:56:27.375Z,8.36
2022-11-25T19:57:27.416Z,8.26
2022-11-25T19:58:27.463Z,8.32
2022-11-25T19:59:27.512Z,8.30
2022-11-25T20:00:27.593Z,8.32
2022-11-25T20:01:27.665Z,8.30
2022-11-25T20:02:27.784Z,8.32
2022-11-25T20:03:27.688Z,8.33
2022-11-25T20:04:27.734Z,8.35
2022-11-25T20:05:27.826Z,8.39
2022-11-25T20:06:27.827Z,8.33
2022-11-25T20:07:27.919Z,8.36
2022-11-25T20:08:28.701Z,8.36
2022-11-25T20:09:27.959Z,8.36
2022-11-25T20:10:28.039Z,8.35
2022-11-25T20:11:28.055Z,8.35
2022-11-25T20:12:28.090Z,8.30
2022-11-25T20:13:28.149Z,8.35
2022-11-25T20:14:28.206Z,8.35
2022-11-25T20:15:28.245Z,8.36
2022-11-25T20:16:28.314Z,8.35
2022-11-25T20:17:28.324Z,8.33
2022-11-25T20:18:28.375Z,8.30
2022-11-25T20:19:28.456Z,8.33
2022-11-25T20:20:29.188Z,8.40
2022-11-25T20:21:28.505Z,8.32
2022-11-25T20:22:28.543Z,8.35
2022-11-25T20:23:28.602Z,8.37
2022-11-25T20:24:28.671Z,8.35
2022-11-25T20:25:28.682Z,8.32
2022-11-25T20:26:28.727Z,8.32
2022-11-25T20:27:28.811Z,8.25
2022-11-25T20:28:28.820Z,8.21
2022-11-25T20:29:30.650Z,8.21
2022-11-25T20:30:28.907Z,8.20
2022-11-25T20:31:30.546Z,8.26
2022-11-25T20:32:29.036Z,8.35
2022-11-25T20:33:29.041Z,8.30
2022-11-25T20:34:29.102Z,8.20
2022-11-25T20:35:29.142Z,8.18
2022-11-25T20:36:29.190Z,8.28
2022-11-25T20:37:29.265Z,8.29
2022-11-25T20:38:29.271Z,8.25
2022-11-25T20:39:29.329Z,8.21
2022-11-25T20:40:29.370Z,8.25
2022-11-25T20:41:29.429Z,8.25
2022-11-25T20:42:29.498Z,8.15
2022-11-25T20:43:29.512Z,8.26
2022-11-25T20:44:29.549Z,8.21
2022-11-25T20:45:29.655Z,8.26
2022-11-25T20:46:29.637Z,8.26
2022-11-25T20:47:29.721Z,8.26
2022-11-25T20:48:29.785Z,8.20
2022-11-25T20:49:29.794Z,8.29
2022-11-25T20:50:29.831Z,8.26
2022-11-25T20:51:29.873Z,8.22
2022-11-25T20:52:29.908Z,8.21
2022-11-25T20:53:29.960Z,8.18
2022-11-25T20:54:30.031Z,8.29
2022-11-25T20:55:30.064Z,8.26
2022-11-25T20:56:30.121Z,8.32
2022-11-25T20:57:30.140Z,8.30
2022-11-25T20:58:30.176Z,8.30
2022-11-25T20:59:30.230Z,8.36
2022-11-25T21:00:31.198Z,8.35
2022-11-25T21:01:30.405Z,8.37
2022-11-25T21:02:30.393Z,8.36
2022-11-25T21:03:30.454Z,8.32
2022-11-25T21:04:30.450Z,8.30
2022-11-25T21:05:30.509Z,8.37
2022-11-25T21:06:30.576Z,8.33
2022-11-25T21:07:30.669Z,8.32
2022-11-25T21:08:30.648Z,8.30
2022-11-25T21:09:30.673Z,8.30
2022-11-25T21:10:30.732Z,8.28
2022-11-25T21:11:30.797Z,8.17
2022-11-25T21:12:30.844Z,8.26
2022-11-25T21:13:30.860Z,8.28
2022-11-25T21:14:30.919Z,8.25
2022-11-25T21:15:30.970Z,8.30
2022-11-25T21:16:31.121Z,8.25
2022-11-25T21:17:31.035Z,8.22
2022-11-25T21:18:31.090Z,8.20
2022-11-25T21:19:31.702Z,8.22
2022-11-25T21:20:31.215Z,8.33
2022-11-25T21:21:31.218Z,8.32
2022-11-25T21:22:31.285Z,8.29
2022-11-25T21:23:31.309Z,8.28
2022-11-25T21:24:31.354Z,8.33
2022-11-25T21:25:31.435Z,8.25
2022-11-25T21:26:31.455Z,8.26
2022-11-25T21:27:31.488Z,8.25
2022-11-25T21:28:31.549Z,8.22
2022-11-25T21:29:31.630Z,8.21
2022-11-25T21:30:31.644Z,8.26
2022-11-25T21:31:31.770Z,8.22
2022-11-25T21:32:31.724Z,8.22
2022-11-25T21:33:31.775Z,8.25
2022-11-25T21:34:31.815Z,8.20
2022-11-25T21:35:31.879Z,8.28
2022-11-25T21:36:31.893Z,8.25
2022-11-25T21:37:31.939Z,8.22
2022-11-25T21:38:31.986Z,8.28
2022-11-25T21:39:32.046Z,8.22
2022-11-25T21:40:32.110Z,8.22
2022-11-25T21:41:32.121Z,8.26
2022-11-25T21:42:32.217Z,8.28
2022-11-25T21:43:33.210Z,8.25
2022-11-25T21:44:32.263Z,8.22
2022-11-25T21:45:32.312Z,8.22
2022-11-25T21:46:32.400Z,8.20
2022-11-25T21:47:32.417Z,8.20
2022-11-25T21:48:32.463Z,8.18
2022-11-25T21:49:32.503Z,8.20
2022-11-25T21:50:32.535Z,8.22
2022-11-25T21:51:33.196Z,8.28
2022-11-25T21:52:32.641Z,8.26
2022-11-25T21:53:37.135Z,8.25
2022-11-25T21:54:32.724Z,8.22
2022-11-25T21:55:32.804Z,8.26
2022-11-25T21:56:32.811Z,8.28
2022-11-25T21:57:32.859Z,8.20
2022-11-25T21:58:32.899Z,8.28
2022-11-25T21:59:32.957Z,8.20
2022-11-25T22:00:33.012Z,8.26
2022-11-25T22:01:33.099Z,8.20
2022-11-25T22:02:33.143Z,8.20
2022-11-25T22:03:33.710Z,8.21
2022-11-25T22:04:33.194Z,8.25
2022-11-25T22:05:33.221Z,8.26
2022-11-25T22:06:33.259Z,8.22
2022-11-25T22:07:33.453Z,8.22
2022-11-25T22:08:33.352Z,8.20
2022-11-25T22:09:33.425Z,8.25
2022-11-25T22:10:33.449Z,8.32
2022-11-25T22:11:33.493Z,8.26
2022-11-25T22:12:38.156Z,8.29
2022-11-25T22:13:33.579Z,8.22
2022-11-25T22:14:33.656Z,8.21
2022-11-25T22:15:33.669Z,8.21
2022-11-25T22:16:33.763Z,8.21
2022-11-25T22:17:33.748Z,8.21
2022-11-25T22:18:33.814Z,8.26
2022-11-25T22:19:33.874Z,8.15
2022-11-25T22:20:33.896Z,8.21
2022-11-25T22:21:33.939Z,8.20
2022-11-25T22:22:34.016Z,8.21
2022-11-25T22:23:34.020Z,8.25
2022-11-25T22:24:34.068Z,8.26
2022-11-25T22:25:34.121Z,8.30
2022-11-25T22:26:34.167Z,8.21
2022-11-25T22:27:34.240Z,8.21
2022-11-25T22:28:34.279Z,8.25
2022-11-25T22:29:34.296Z,8.22
2022-11-25T22:30:34.340Z,8.18
2022-11-25T22:31:34.444Z,8.25
2022-11-25T22:32:34.443Z,8.28
2022-11-25T22:33:34.485Z,8.32
2022-11-25T22:34:34.541Z,8.22
2022-11-25T22:35:34.574Z,8.25
2022-11-25T22:36:34.619Z,8.20
2022-11-25T22:37:34.664Z,8.26
2022-11-25T22:38:34.737Z,8.26
2022-11-25T22:39:34.761Z,8.21
2022-11-25T22:40:35.709Z,8.26
2022-11-25T22:41:34.844Z,8.26
2022-11-25T22:42:34.891Z,8.30
2022-11-25T22:43:34.958Z,8.25
2022-11-25T22:44:35.258Z,8.26
2022-11-25T22:45:35.094Z,8.11
2022-11-25T22:46:35.063Z,8.25
2022-11-25T22:47:35.120Z,8.20
2022-11-25T22:48:35.187Z,8.14
2022-11-25T22:49:35.208Z,8.14
2022-11-25T22:50:35.295Z,8.15
2022-11-25T22:51:35.292Z,8.12
2022-11-25T22:52:35.372Z,8.12
2022-11-25T22:53:36.214Z,8.11
2022-11-25T22:54:35.662Z,8.15
2022-11-25T22:55:35.504Z,8.17
2022-11-25T22:56:35.532Z,8.07
2022-11-25T22:57:35.561Z,8.00
2022-11-25T22:58:35.616Z,8.07
2022-11-25T22:59:36.204Z,8.00
2022-11-25T23:00:35.825Z,7.93
2022-11-25T23:01:35.782Z,7.96
2022-11-25T23:02:35.804Z,7.97
2022-11-25T23:03:35.847Z,7.92
2022-11-25T23:04:36.201Z,7.94
2022-11-25T23:05:35.927Z,7.79
2022-11-25T23:06:35.971Z,7.81
2022-11-25T23:07:36.070Z,7.78
2022-11-25T23:08:36.079Z,7.69
2022-11-25T23:09:36.112Z,7.62
2022-11-25T23:10:36.159Z,7.58
2022-11-25T23:11:39.979Z,7.63
2022-11-25T23:12:36.257Z,7.55
2022-11-25T23:13:36.293Z,7.47
2022-11-25T23:14:36.631Z,7.50
2022-11-25T23:15:36.391Z,7.45
2022-11-25T23:16:36.447Z,7.49
2022-11-25T23:17:36.465Z,7.42
2022-11-25T23:18:38.485Z,7.41
2022-11-25T23:19:36.554Z,7.42
2022-11-25T23:20:36.633Z,7.35
2022-11-25T23:21:36.645Z,7.31
2022-11-25T23:22:36.696Z,7.20
2022-11-25T23:23:36.758Z,7.20
2022-11-25T23:24:37.893Z,7.19
2022-11-25T23:25:36.830Z,7.17
2022-11-25T23:26:36.865Z,7.09
2022-11-25T23:27:36.922Z,7.26
2022-11-25T23:28:36.989Z,7.13
2022-11-25T23:29:36.996Z,7.13
2022-11-25T23:30:37.048Z,7.12
2022-11-25T23:31:37.163Z,7.04
2022-11-25T23:32:37.128Z,6.91
2022-11-25T23:33:37.212Z,6.90
2022-11-25T23:34:37.518Z,6.91
2022-11-25T23:35:37.276Z,6.81
2022-11-25T23:36:37.308Z,6.76
2022-11-25T23:37:37.387Z,6.81
2022-11-25T23:38:37.414Z,6.79
2022-11-25T23:39:37.447Z,6.73
2022-11-25T23:40:37.488Z,6.76
2022-11-25T23:41:37.565Z,6.71
2022-11-25T23:42:37.591Z,6.65
2022-11-25T23:43:37.624Z,6.65
2022-11-25T23:44:37.921Z,6.66
2022-11-25T23:45:37.747Z,6.63
2022-11-25T23:46:37.753Z,6.66
2022-11-25T23:47:37.799Z,6.73
2022-11-25T23:48:37.835Z,6.83
2022-11-25T23:49:37.912Z,6.89
2022-11-25T23:50:37.924Z,6.91
2022-11-25T23:51:37.980Z,6.97
2022-11-25T23:52:38.017Z,6.94
2022-11-25T23:53:38.058Z,6.87
2022-11-25T23:54:38.277Z,6.97
2022-11-25T23:55:38.187Z,7.04
2022-11-25T23:56:38.198Z,7.02
2022-11-25T23:57:38.237Z,7.04
2022-11-25T23:58:38.274Z,7.09
2022-11-25T23:59:38.327Z,7.08
